createdAt,value
2019-03-17T00:01:23.829Z,45.20
2019-03-17T00:03:54.202Z,47.93
2019-03-17T00:06:24.660Z,41.37
2019-03-17T00:08:56.322Z,48.00
2019-03-17T00:11:28.265Z,49.27
2019-03-17T00:13:58.653Z,52.40
2019-03-17T00:16:29.150Z,48.17
2019-03-17T00:18:59.578Z,47.60
2019-03-17T00:21:30.065Z,65.57
2019-03-17T00:24:00.495Z,58.20
2019-03-17T00:26:33.676Z,49.53
2019-03-17T00:29:04.127Z,52.93
2019-03-17T00:31:34.570Z,46.63
2019-03-17T00:34:06.577Z,48.13
2019-03-17T00:36:38.957Z,52.50
2019-03-17T00:39:09.046Z,46.30
2019-03-17T00:41:43.348Z,54.10
2019-03-17T00:44:16.253Z,59.70
2019-03-17T00:46:47.744Z,47.53
2019-03-17T00:49:18.233Z,44.10
2019-03-17T00:51:48.842Z,52.97
2019-03-17T00:54:19.311Z,50.37
2019-03-17T00:56:51.348Z,48.73
2019-03-17T00:59:21.849Z,64.83
2019-03-17T01:01:52.456Z,58.87
2019-03-17T01:04:22.886Z,66.53
2019-03-17T01:06:53.346Z,65.37
2019-03-17T01:09:25.396Z,77.87
2019-03-17T01:11:55.886Z,71.23
2019-03-17T01:14:26.826Z,68.07
2019-03-17T01:16:57.279Z,68.60
2019-03-17T01:19:27.673Z,72.97
2019-03-17T01:21:58.063Z,81.97
2019-03-17T01:24:30.530Z,88.30
2019-03-17T01:27:04.021Z,101.70
2019-03-17T01:29:35.310Z,105.20
2019-03-17T01:32:05.752Z,95.97
2019-03-17T01:34:36.322Z,104.50
2019-03-17T01:37:06.785Z,114.23
2019-03-17T01:39:37.193Z,98.60
2019-03-17T01:42:09.816Z,126.00
2019-03-17T01:44:41.810Z,107.60
2019-03-17T01:47:14.921Z,114.63
2019-03-17T01:49:45.436Z,122.13
2019-03-17T01:52:15.848Z,112.87
2019-03-17T01:54:46.283Z,110.33
2019-03-17T01:57:16.839Z,125.90
2019-03-17T01:59:47.242Z,125.57
2019-03-17T02:02:17.769Z,147.40
2019-03-17T02:04:48.216Z,125.67
2019-03-17T02:07:18.595Z,116.70
2019-03-17T02:09:49.061Z,120.77
2019-03-17T02:12:19.571Z,118.30
2019-03-17T02:14:50.007Z,118.07
2019-03-17T02:17:20.407Z,120.90
2019-03-17T02:19:52.396Z,122.60
2019-03-17T02:22:22.818Z,114.10
2019-03-17T02:24:53.232Z,111.57
2019-03-17T02:27:23.672Z,105.43
2019-03-17T02:29:55.767Z,99.00
2019-03-17T02:32:27.767Z,104.20
2019-03-17T02:34:58.414Z,113.27
2019-03-17T02:37:30.866Z,111.23
2019-03-17T02:40:02.512Z,108.33
2019-03-17T02:42:33.015Z,93.23
2019-03-17T02:45:03.608Z,95.87
2019-03-17T02:47:34.786Z,98.37
2019-03-17T02:50:09.445Z,104.67
2019-03-17T02:52:39.988Z,112.50
2019-03-17T02:55:10.369Z,99.60
2019-03-17T02:57:42.954Z,99.30
2019-03-17T03:00:13.403Z,100.53
2019-03-17T03:02:43.834Z,96.13
2019-03-17T03:05:14.268Z,91.07
2019-03-17T03:07:44.707Z,82.03
2019-03-17T03:10:15.189Z,105.00
2019-03-17T03:12:45.707Z,70.93
2019-03-17T03:15:18.717Z,66.17
2019-03-17T03:17:49.151Z,61.87
2019-03-17T03:20:19.544Z,55.80
2019-03-17T03:22:49.956Z,53.90
2019-03-17T03:25:22.434Z,49.03
2019-03-17T03:27:52.521Z,53.93
2019-03-17T03:30:22.999Z,57.83
2019-03-17T03:32:56.045Z,51.90
2019-03-17T03:35:27.335Z,57.43
2019-03-17T03:37:57.722Z,58.57
2019-03-17T03:40:28.180Z,63.83
2019-03-17T03:42:58.735Z,51.97
2019-03-17T03:45:29.311Z,65.70
2019-03-17T03:48:05.030Z,56.80
2019-03-17T03:50:35.413Z,55.37
2019-03-17T03:53:05.833Z,57.47
2019-03-17T03:55:42.162Z,55.03
2019-03-17T03:58:11.397Z,52.80
2019-03-17T04:00:44.665Z,58.00
2019-03-17T04:03:15.141Z,51.83
2019-03-17T04:05:45.550Z,45.00
2019-03-17T04:08:15.972Z,49.17
2019-03-17T04:10:48.672Z,48.13
2019-03-17T04:13:19.133Z,46.07
2019-03-17T04:15:54.537Z,40.90
2019-03-17T04:18:24.680Z,45.00
2019-03-17T04:20:55.163Z,47.97
2019-03-17T04:23:25.786Z,42.53
2019-03-17T04:25:58.788Z,33.30
2019-03-17T04:28:29.232Z,36.50
2019-03-17T04:30:59.627Z,36.40
2019-03-17T04:33:30.135Z,29.70
2019-03-17T04:36:00.679Z,27.37
2019-03-17T04:38:31.123Z,26.53
2019-03-17T04:43:49.472Z,23.67
2019-03-17T04:46:25.020Z,24.53
2019-03-17T04:48:55.361Z,18.93
2019-03-17T04:51:28.505Z,19.67
2019-03-17T04:54:04.942Z,23.73
2019-03-17T04:56:39.686Z,18.13
2019-03-17T04:59:11.753Z,18.47
2019-03-17T05:01:42.998Z,18.20
2019-03-17T05:04:17.373Z,15.90
2019-03-17T05:06:52.959Z,15.60
2019-03-17T05:09:43.705Z,18.80
2019-03-17T05:15:14.989Z,18.50
2019-03-17T05:17:52.690Z,19.03
2019-03-17T05:20:25.719Z,15.30
2019-03-17T05:22:57.979Z,20.87
2019-03-17T05:25:29.953Z,19.60
2019-03-17T05:28:00.750Z,16.37
2019-03-17T05:30:32.768Z,16.20
2019-03-17T05:33:06.030Z,19.23
2019-03-17T05:35:37.622Z,14.00
2019-03-17T05:38:08.259Z,15.97
2019-03-17T05:40:38.959Z,18.13
2019-03-17T05:43:09.470Z,16.93
2019-03-17T05:45:41.676Z,16.13
2019-03-17T05:48:12.815Z,16.00
2019-03-17T05:50:54.916Z,15.57
2019-03-17T05:53:29.855Z,13.77
2019-03-17T05:56:06.594Z,13.90
2019-03-17T05:58:55.591Z,13.70
2019-03-17T06:01:29.778Z,14.17
2019-03-17T06:04:00.349Z,14.33
2019-03-17T06:06:32.382Z,13.00
2019-03-17T06:09:06.094Z,13.13
2019-03-17T06:11:36.535Z,16.00
2019-03-17T06:14:12.838Z,15.20
2019-03-17T06:16:45.173Z,13.63
2019-03-17T06:19:15.698Z,15.13
2019-03-17T06:21:49.001Z,14.70
2019-03-17T06:24:19.577Z,13.47
2019-03-17T06:26:51.585Z,15.10
2019-03-17T06:29:25.020Z,19.17
2019-03-17T06:31:55.465Z,14.83
2019-03-17T06:34:29.338Z,15.50
2019-03-17T06:37:01.627Z,18.60
2019-03-17T06:39:34.709Z,20.37
2019-03-17T06:42:07.612Z,21.10
2019-03-17T06:44:38.082Z,23.97
2019-03-17T06:47:10.364Z,21.20
2019-03-17T06:49:47.128Z,18.93
2019-03-17T06:52:17.565Z,18.63
2019-03-17T06:54:48.185Z,18.33
2019-03-17T06:57:20.643Z,19.30
2019-03-17T06:59:53.154Z,18.70
2019-03-17T07:02:23.835Z,16.50
2019-03-17T07:04:55.992Z,16.97
2019-03-17T07:07:28.284Z,18.67
2019-03-17T07:09:59.871Z,20.37
2019-03-17T07:12:38.037Z,16.87
2019-03-17T07:15:13.431Z,17.87
2019-03-17T14:34:33.764Z,16.67
2019-03-17T14:37:06.833Z,16.70
2019-03-17T14:39:41.376Z,13.57
2019-03-17T14:42:16.490Z,12.60
2019-03-17T14:44:50.459Z,14.47
2019-03-17T14:47:22.335Z,11.33
2019-03-17T14:49:56.331Z,12.07
2019-03-17T14:52:35.020Z,11.33
2019-03-17T14:55:06.873Z,11.90
2019-03-17T14:57:37.365Z,15.03
2019-03-17T15:00:22.881Z,9.27
2019-03-17T15:02:56.510Z,11.63
2019-03-17T15:05:32.759Z,13.87
2019-03-17T15:08:15.220Z,13.53
2019-03-17T15:11:04.936Z,19.23
2019-03-17T15:13:29.036Z,17.87
2019-03-17T15:16:05.258Z,22.07
2019-03-17T15:18:36.459Z,29.93
2019-03-17T15:21:08.586Z,21.97
2019-03-17T15:23:40.740Z,25.23
2019-03-17T15:26:14.734Z,15.67
2019-03-17T15:28:45.721Z,13.40
2019-03-17T15:31:22.895Z,14.17
2019-03-17T15:33:56.865Z,13.70
2019-03-17T15:36:32.006Z,13.67
2019-03-17T15:39:08.605Z,11.93
2019-03-17T15:41:41.353Z,13.57
2019-03-17T15:44:25.923Z,12.43
2019-03-17T15:46:58.473Z,11.83
2019-03-17T15:49:34.208Z,13.53
2019-03-17T15:52:04.801Z,13.20
2019-03-17T15:54:37.427Z,14.47
2019-03-17T15:57:11.012Z,16.60
2019-03-17T15:59:41.725Z,18.50
2019-03-17T16:02:16.184Z,19.23
2019-03-17T16:04:55.251Z,19.00
2019-03-17T16:07:54.748Z,19.13
2019-03-17T16:10:20.197Z,19.03
2019-03-17T16:12:50.822Z,22.13
2019-03-17T16:15:24.137Z,16.67
2019-03-17T16:18:01.827Z,19.00
2019-03-17T16:20:35.103Z,16.93
2019-03-17T16:23:05.725Z,21.23
2019-03-17T16:25:41.280Z,32.43
2019-03-17T16:28:14.120Z,12.50
2019-03-17T16:30:50.967Z,13.30
2019-03-17T16:36:24.309Z,14.80
2019-03-17T16:42:19.848Z,14.97
2019-03-17T16:48:13.826Z,18.60
2019-03-17T16:53:51.037Z,24.30
2019-03-17T18:16:07.433Z,22.20
2019-03-17T18:18:43.255Z,21.37
2019-03-17T18:24:56.668Z,25.27
2019-03-17T18:27:32.150Z,22.47
2019-03-17T18:33:47.108Z,22.43
2019-03-17T18:39:14.459Z,22.47
2019-03-17T18:42:03.027Z,26.87
2019-03-17T18:44:42.209Z,28.60
2019-03-17T18:47:26.380Z,26.83
2019-03-17T18:50:19.470Z,26.90
2019-03-17T18:52:57.648Z,28.37
2019-03-17T18:58:48.699Z,34.27
2019-03-17T19:01:36.034Z,35.20
2019-03-17T19:04:26.582Z,39.27
2019-03-17T19:07:09.558Z,40.97
2019-03-17T19:09:56.161Z,40.93
2019-03-17T19:12:29.251Z,41.13
2019-03-17T19:15:18.115Z,42.43
2019-03-17T19:17:54.920Z,46.03
2019-03-17T19:20:47.461Z,44.23
2019-03-17T21:00:46.110Z,28.77
2019-03-17T21:03:30.951Z,26.87
2019-03-17T21:13:09.300Z,26.83
2019-03-17T21:25:46.174Z,23.87
2019-03-17T21:31:35.316Z,21.40
2019-03-17T21:34:33.581Z,20.13
2019-03-17T21:43:24.325Z,22.10
2019-03-17T21:46:13.823Z,21.50
2019-03-17T21:59:11.202Z,32.70
2019-03-17T22:02:14.180Z,30.77
2019-03-17T22:08:19.165Z,46.27
2019-03-17T22:14:18.899Z,53.97
2019-03-17T22:16:56.060Z,63.23
2019-03-17T22:19:47.556Z,82.33
2019-03-17T22:22:20.672Z,72.30
2019-03-17T22:24:54.264Z,82.43
2019-03-17T22:27:33.472Z,86.03
2019-03-17T22:36:06.145Z,108.60
2019-03-17T22:38:42.256Z,96.77
2019-03-17T22:41:16.825Z,95.27
2019-03-17T22:43:49.172Z,85.33
2019-03-17T22:46:26.323Z,93.07
2019-03-17T22:48:58.809Z,84.10
2019-03-17T22:51:31.102Z,92.47
2019-03-17T22:54:01.594Z,86.40
2019-03-17T22:56:32.260Z,87.93
2019-03-17T22:59:02.986Z,83.37
2019-03-17T23:01:35.236Z,90.60
2019-03-17T23:04:07.606Z,78.07
2019-03-17T23:06:38.179Z,83.20
2019-03-17T23:09:08.835Z,86.77
2019-03-17T23:11:39.465Z,90.60
2019-03-17T23:14:17.838Z,69.30
2019-03-17T23:19:39.323Z,72.17
2019-03-17T23:22:10.986Z,70.90
2019-03-17T23:24:42.548Z,70.63
2019-03-17T23:27:13.233Z,68.17
2019-03-17T23:29:45.076Z,63.90
2019-03-17T23:32:22.327Z,62.90
2019-03-17T23:34:57.208Z,61.57
2019-03-17T23:37:44.173Z,58.60
2019-03-17T23:40:15.959Z,56.73
2019-03-17T23:42:48.733Z,61.87
2019-03-17T23:45:19.956Z,65.10
2019-03-17T23:47:50.515Z,56.40
2019-03-17T23:50:24.590Z,54.77
2019-03-17T23:52:56.665Z,54.50
2019-03-17T23:55:27.192Z,56.97
2019-03-17T23:57:57.755Z,48.10
